EKEL weather

Endelave Flyveplads
Endelave, Central Jutland, Denmark

Public forecast

Using degrees Celsius for public forecast. Weather courtesy of forecast.io.

METAR (pilot weather report)

Report is more than 6 hours old.

Closest report is Odense Airport, 17.0 nm (31.5 km) S. Retrieved 2019/05/19 14:50 UTC (12 hours ago):

EKOD 191450Z 03011KT 350V060 9999 SCT020 16/15 Q1009

TAF (pilot weather forecast)

Forecast is more than 12 hours old.

Closest forecast is Aarhus Airport, 34.9 nm (64.7 km) NNE. Retrieved 2019/05/19 00:09 UTC (1 day ago):

TAF TAF EKAH 192300Z 2000/2024 07006KT 4000 BR SCT015 TEMPO 2000/2006 0500 FG BKN002 BECMG 2006/2009 9999 NSW TEMPO 2009/2012 BKN010 TEMPO 2012/2024 FEW020CB